Terminal Aerodrome Forecast
Issued by NWS

Home | Current Version | Previous Version | Text Only | Print | Product List | Glossary On
Versions: 1 2 3 4 5 6 7 8 9 10 11 12 13 14 15
000
FTUS46 KHNX 201134
TAFVIS
TAF
KVIS 201134Z 2012/2112 13005KT 5SM BR BKN120
     FM201500 12002KT 2SM BR BKN100
     FM202000 VRB03KT 6SM HZ BKN070
     FM210900 09003KT 2SM BR SCT250=

USA.gov is the U.S. government's official web portal to all federal, state and local government web resources and services.